Alligator, MS

3:36 AM CDT on August 02, 2014 (GMT -0500)
Clarksdale (KMSCLARK2) Elev 164 ft | 34.10 °N, 90.61 °W | Change Station

Current weather conditions updated 4 seconds ago

Overcast
Overcast
72.2 °F
Feels Like 72.2 °F
N
0.0
Wind Variable Wind from WSW
Gusts 0.0 mph

Today is forecast to be Warmer than yesterday.

Today
High -- | Low -- °F
--% Chance of Precip.
Yesterday
High -- | Low -- °F
Precip. -- in
6:15 AM 8:03 PM
Waxing Crescent, 33% visible
Pressure 30.02 in
Visibility 7.0 miles
Clouds Overcast 11000 ft
Dew Point 71 °F
Humidity 95%
Rainfall 0.00 in
Snow Depth Not available.
UV 0 out of 12
Pollen 6.60 out of 12
Air Quality Not available.
Flu Activity Not available.
METAR KCKM 020755Z AUTO 00000KT 7SM OVC110 22/22 A3002 RMK AO1

More Conditions Fewer Conditions

Pressure 30.02 in
Visibility 7.0 miles
Clouds Overcast 11000 ft
Dew Point 71 °F
Humidity 95%
Rainfall 0.00 in
Snow Depth Not available.
UV 0 out of 12
Pollen 6.60 out of 12
Air Quality Not available.
Flu Activity Not available.
METAR KCKM 020755Z AUTO 00000KT 7SM OVC110 22/22 A3002 RMK AO1

More Conditions Fewer Conditions

10-Day Weather Forecast

Almanac

Astronomy

Aug. 02, 2014 Rise Set
Actual Time 6:15 AM CDT 8:03 PM CDT
Civil Twilight 5:47 AM CDT 8:30 PM CDT
Nautical Twilight 5:14 AM CDT 9:03 PM CDT
Astronomical Twilight 4:39 AM CDT 9:38 PM CDT
Moon 12:17 PM CDT 11:42 PM CDT
Length of Visible Light 14h 42m
Length of Day
13h 48m
Tomorrow will be 1m 37s shorter.
Waxing Crescent, 33% of the Moon is Illuminated
Today
Waxing Crescent
Aug 3
First Quarter
Aug 10
Full
Aug 17
Last Quarter
Aug 25
New

Today's Extremes

State Highs State Lows

Community

WunderPhotos

Upload Photos

1,739,844 photos uploaded!

Nearby

Snow Depth

Station Depth Elevation
No new snow has been reported.

Earthquake Activity

City Distance Mag. Time & Date
No recent earthquake activity has been reported nearby.
Minimum magnitude displayed is 2.5.

Coastal Water Temperatures

Place Temperature
No Stations Reporting

Nearby Weather Stations

Station Location Temp. Heat Index Dew Point Humidity Wind Precip. Elev Updated Type
Clarksdale, Clarksdale, MS 72.2 °F - 71 °F 95% WSW  at  0.0 mph 0.00 in / hr 164 ft 3:36 AM CDT Rapid Fire
MesoWest VANCE , Rome, MS 74 °F 73 °F 70 °F 89% NNW  at  0 mph 0.00 in / hr 149 ft 12:00 AM CDT MADIS

Show More Stations Show Fewer Stations